Time;durP1;ratioP1;P1;durP2;ratioP2;P2;SDS_P1;SDS_P2;PMS_P1;PMS_P2;Temp;Humidity;BMP_temperature;BMP_pressure;BME280_temperature;BME280_humidity;BME280_pressure;Samples;Min_cycle;Max_cycle;Signal;HPM_P1;HPM_P2
2024/01/01 00:01:26;;;;;;;21.77;12.60;;;;;;;9.11;85.98;99271.63;4955473;28;20035;-72
2024/01/01 00:03:51;;;;;;;30.02;14.93;;;;;;;9.13;86.25;99266.66;4929868;29;20494;-72
2024/01/01 00:06:16;;;;;;;29.65;13.60;;;;;;;8.86;86.89;99271.53;4927969;29;20048;-72
2024/01/01 00:08:42;;;;;;;27.42;11.30;;;;;;;8.91;87.36;99265.03;4931616;29;20027;-72
2024/01/01 00:11:07;;;;;;;26.73;11.35;;;;;;;8.79;87.22;99251.91;4928820;29;20047;-71
2024/01/01 00:13:33;;;;;;;21.35;10.65;;;;;;;8.80;87.07;99256.16;4926836;29;20041;-71
2024/01/01 00:15:58;;;;;;;21.13;9.02;;;;;;;8.78;87.79;99264.59;4930651;29;20058;-72
2024/01/01 00:18:23;;;;;;;12.55;6.68;;;;;;;9.01;86.14;99256.25;4926262;29;20027;-72
2024/01/01 00:20:49;;;;;;;19.70;7.68;;;;;;;8.80;87.40;99256.16;4928009;29;20035;-72
2024/01/01 00:23:14;;;;;;;15.60;6.85;;;;;;;8.77;87.73;99252.31;4925246;29;20044;-71
2024/01/01 00:25:40;;;;;;;12.23;5.72;;;;;;;8.73;87.95;99248.84;4930481;29;20095;-72
2024/01/01 00:28:06;;;;;;;19.08;7.35;;;;;;;8.68;87.64;99254.56;4925803;29;20505;-72
2024/01/01 00:30:32;;;;;;;13.35;6.38;;;;;;;8.55;88.64;99248.00;4928504;29;20044;-72
2024/01/01 00:32:58;;;;;;;15.48;6.50;;;;;;;8.62;88.11;99237.28;4928358;29;20118;-72
2024/01/01 00:35:23;;;;;;;18.33;6.70;;;;;;;8.64;87.51;99240.38;4925484;29;20114;-72
2024/01/01 00:37:49;;;;;;;16.05;7.22;;;;;;;8.57;88.57;99237.66;4914037;29;20394;-72
2024/01/01 00:40:15;;;;;;;12.52;7.15;;;;;;;8.38;88.54;99235.22;4928716;29;20028;-71
2024/01/01 00:42:42;;;;;;;11.50;5.32;;;;;;;8.52;88.28;99232.63;4928728;29;20051;-72
2024/01/01 00:45:09;;;;;;;15.13;5.88;;;;;;;8.57;88.45;99231.53;4929388;29;20035;-71
2024/01/01 00:47:34;;;;;;;8.70;5.78;;;;;;;8.65;87.94;99241.16;4927807;29;20031;-72
2024/01/01 00:50:00;;;;;;;23.00;6.95;;;;;;;8.65;87.27;99241.16;4928412;29;20043;-71
2024/01/01 00:52:26;;;;;;;14.60;6.95;;;;;;;8.48;88.23;99241.84;4930202;29;20028;-72
2024/01/01 00:54:52;;;;;;;17.33;8.20;;;;;;;8.59;88.22;99246.09;4927180;29;20028;-71
2024/01/01 00:57:18;;;;;;;16.70;6.10;;;;;;;8.52;87.80;99253.31;4930753;29;20035;-71
2024/01/01 00:59:43;;;;;;;11.02;5.93;;;;;;;8.49;88.29;99260.22;4911992;29;20067;-72
2024/01/01 01:02:09;;;;;;;18.13;6.43;;;;;;;8.65;87.71;99251.88;4929548;29;20499;-73
2024/01/01 01:04:34;;;;;;;11.18;6.43;;;;;;;8.57;87.90;99247.63;4926578;29;20476;-72
2024/01/01 01:07:01;;;;;;;16.58;6.80;;;;;;;8.51;87.75;99252.56;4926686;29;20031;-72
2024/01/01 01:09:26;;;;;;;19.90;8.90;;;;;;;8.37;88.75;99240.97;4928935;29;20028;-72
2024/01/01 01:11:52;;;;;;;12.15;6.22;;;;;;;8.36;89.16;99250.19;4911673;29;20508;-71
2024/01/01 01:14:18;;;;;;;10.30;5.93;;;;;;;8.59;87.71;99264.09;4928240;29;21268;-72
2024/01/01 01:16:43;;;;;;;20.80;6.95;;;;;;;8.53;88.31;99252.97;4912300;29;20046;-72
2024/01/01 01:19:09;;;;;;;9.88;6.75;;;;;;;8.60;87.34;99254.91;4928364;29;20042;-72
2024/01/01 01:21:34;;;;;;;16.67;7.47;;;;;;;8.46;88.32;99258.28;4928677;29;20412;-72
2024/01/01 01:24:00;;;;;;;12.23;5.88;;;;;;;8.52;88.12;99262.16;4928519;29;20123;-72
2024/01/01 01:26:25;;;;;;;14.95;5.45;;;;;;;8.32;88.47;99260.13;4927136;29;20376;-72
2024/01/01 01:28:51;;;;;;;8.90;5.07;;;;;;;8.51;88.09;99262.53;4926895;29;20032;-72
2024/01/01 01:31:16;;;;;;;10.20;6.32;;;;;;;8.49;87.57;99272.88;4917955;29;20506;-71
2024/01/01 01:33:41;;;;;;;8.05;4.75;;;;;;;8.53;87.72;99262.94;4957562;28;20392;-72
2024/01/01 01:36:09;;;;;;;6.35;3.85;;;;;;;8.42;88.33;99260.16;4927951;29;20047;-72
2024/01/01 01:38:35;;;;;;;7.28;4.07;;;;;;;8.49;88.06;99260.22;4926171;29;20519;-71
2024/01/01 01:41:01;;;;;;;7.05;3.33;;;;;;;8.48;88.37;99272.09;4929313;29;20039;-73
2024/01/01 01:43:27;;;;;;;8.60;5.38;;;;;;;8.51;88.15;99263.31;4926371;29;20042;-72
2024/01/01 01:45:55;;;;;;;3.70;3.17;;;;;;;8.54;88.90;99269.81;4912295;29;20028;-72
2024/01/01 01:48:21;;;;;;;7.22;2.90;;;;;;;8.73;87.78;99273.00;4909321;29;20055;-72
2024/01/01 01:50:48;;;;;;;7.70;3.13;;;;;;;8.79;87.39;99273.41;4928269;29;20341;-72
2024/01/01 01:53:15;;;;;;;5.70;3.25;;;;;;;8.76;87.41;99266.88;4944237;29;20027;-71
2024/01/01 01:55:45;;;;;;;4.22;2.33;;;;;;;8.79;87.46;99263.44;4926934;29;20036;-72
2024/01/01 01:58:11;;;;;;;2.55;1.90;;;;;;;8.75;87.71;99261.91;4926454;29;20038;-72
2024/01/01 02:00:40;;;;;;;2.65;2.00;;;;;;;9.00;86.48;99271.56;4954751;28;20727;-71
2024/01/01 02:03:07;;;;;;;2.05;1.85;;;;;;;8.93;86.74;99274.25;4924338;29;20052;-72
2024/01/01 02:05:33;;;;;;;4.10;2.28;;;;;;;8.90;87.71;99276.91;4926488;29;20068;-72
2024/01/01 02:08:00;;;;;;;4.47;1.98;;;;;;;9.00;87.41;99285.00;4914198;29;20063;-72
2024/01/01 02:10:26;;;;;;;5.68;1.42;;;;;;;8.99;87.44;99286.16;4930088;29;20073;-71
2024/01/01 02:12:51;;;;;;;5.00;1.77;;;;;;;9.04;86.57;99277.72;4930145;29;20413;-72
2024/01/01 02:15:17;;;;;;;2.60;1.40;;;;;;;9.15;86.41;99280.47;4930316;29;20039;-72
2024/01/01 02:17:42;;;;;;;1.45;1.15;;;;;;;9.14;86.03;99270.84;4928769;29;20423;-72
2024/01/01 02:20:08;;;;;;;2.63;1.77;;;;;;;9.26;85.74;99272.44;4929619;29;20039;-72
2024/01/01 02:22:38;;;;;;;2.47;1.92;;;;;;;9.21;85.99;99275.50;4930331;29;20031;-72
2024/01/01 02:25:05;;;;;;;4.50;1.53;;;;;;;9.26;86.08;99273.22;4930806;29;20032;-72
2024/01/01 02:27:30;;;;;;;2.90;1.60;;;;;;;9.23;85.73;99273.19;4928731;29;20035;-73
2024/01/01 02:29:56;;;;;;;1.70;1.55;;;;;;;9.19;86.43;99272.41;4931822;29;20034;-72
2024/01/01 02:32:21;;;;;;;3.72;1.83;;;;;;;9.36;84.89;99280.53;4931166;29;20590;-72
2024/01/01 02:34:50;;;;;;;5.57;2.40;;;;;;;9.29;85.62;99274.38;4930430;29;20403;-72
2024/01/01 02:37:16;;;;;;;11.35;2.55;;;;;;;9.24;86.61;99280.88;4929301;29;21299;-72
2024/01/01 02:39:41;;;;;;;3.42;2.08;;;;;;;9.35;85.00;99286.28;4956053;28;20115;-71
2024/01/01 02:42:07;;;;;;;5.63;2.63;;;;;;;9.31;85.34;99277.44;4931839;29;20035;-71
2024/01/01 02:44:32;;;;;;;3.88;1.95;;;;;;;9.05;86.45;99281.97;4932092;29;20399;-71
2024/01/01 02:46:58;;;;;;;10.48;2.10;;;;;;;9.11;87.20;99274.31;4931933;29;20118;-71
2024/01/01 02:49:23;;;;;;;10.88;2.08;;;;;;;9.25;86.72;99270.91;4930069;29;20047;-71
2024/01/01 02:51:48;;;;;;;4.55;2.17;;;;;;;9.17;86.49;99272.03;4928348;29;20036;-72
2024/01/01 02:54:15;;;;;;;5.20;2.38;;;;;;;9.33;86.36;99272.47;4929648;29;20115;-72
2024/01/01 02:56:40;;;;;;;4.07;2.13;;;;;;;9.23;86.05;99267.81;4911562;29;20522;-71
2024/01/01 02:59:06;;;;;;;3.33;2.33;;;;;;;9.28;86.32;99270.91;4929446;29;20039;-70
2024/01/01 03:01:31;;;;;;;2.80;1.85;;;;;;;9.23;86.80;99259.78;4929922;29;20028;-71
2024/01/01 03:03:57;;;;;;;7.03;2.38;;;;;;;9.21;86.94;99265.53;4931426;29;20042;-71
2024/01/01 03:06:22;;;;;;;6.72;3.05;;;;;;;9.36;86.73;99263.63;4925677;29;20114;-71
2024/01/01 03:08:48;;;;;;;4.90;2.58;;;;;;;9.33;86.67;99264.41;4925232;29;21302;-71
2024/01/01 03:11:14;;;;;;;5.13;2.65;;;;;;;9.49;86.03;99256.75;4937548;29;20114;-72
2024/01/01 03:13:39;;;;;;;8.18;2.20;;;;;;;9.46;85.21;99263.66;4955479;28;20023;-71
2024/01/01 03:16:07;;;;;;;6.15;2.97;;;;;;;9.21;87.08;99257.47;4912293;29;20494;-71
2024/01/01 03:18:32;;;;;;;7.68;2.97;;;;;;;9.24;87.12;99256.69;4928769;29;20034;-71
2024/01/01 03:20:58;;;;;;;6.72;3.05;;;;;;;9.33;87.15;99259.78;4925116;29;20114;-70
2024/01/01 03:23:23;;;;;;;17.83;3.85;;;;;;;9.37;86.90;99265.19;4928861;29;20079;-72
2024/01/01 03:25:49;;;;;;;6.28;2.92;;;;;;;9.45;86.79;99264.81;4929191;29;20035;-71
2024/01/01 03:28:14;;;;;;;4.85;3.33;;;;;;;9.45;86.73;99251.38;4924317;29;20036;-71
2024/01/01 03:30:40;;;;;;;4.13;2.53;;;;;;;9.44;86.58;99259.81;4929368;29;21349;-70
2024/01/01 03:33:05;;;;;;;6.55;3.60;;;;;;;9.42;86.43;99260.19;4930251;29;20043;-71
2024/01/01 03:35:31;;;;;;;6.63;3.20;;;;;;;9.26;87.10;99261.69;4930493;29;20585;-71
2024/01/01 03:38:00;;;;;;;6.95;3.25;;;;;;;9.41;86.70;99255.19;4929378;29;20115;-71
2024/01/01 03:40:26;;;;;;;7.28;2.70;;;;;;;9.43;86.42;99264.41;4929284;29;20031;-71
2024/01/01 03:42:52;;;;;;;3.60;2.55;;;;;;;9.47;86.28;99272.47;4931031;29;20086;-71
2024/01/01 03:45:18;;;;;;;5.43;2.83;;;;;;;9.31;87.25;99267.44;4928416;29;20042;-71
2024/01/01 03:47:43;;;;;;;5.32;2.72;;;;;;;9.40;87.66;99267.88;4928316;29;20043;-71
2024/01/01 03:50:09;;;;;;;8.43;3.47;;;;;;;9.48;86.70;99258.69;4928945;29;20419;-71
2024/01/01 03:52:34;;;;;;;5.85;3.42;;;;;;;9.44;86.85;99270.56;4928839;29;20106;-71
2024/01/01 03:55:00;;;;;;;8.18;3.30;;;;;;;9.57;86.65;99271.72;4939843;29;20027;-71
2024/01/01 03:57:26;;;;;;;11.65;3.53;;;;;;;9.62;86.48;99274.06;4929979;29;20097;-72
2024/01/01 03:59:52;;;;;;;4.22;2.65;;;;;;;9.60;86.30;99273.66;4927572;29;20035;-71
2024/01/01 04:02:18;;;;;;;9.30;3.40;;;;;;;9.66;85.73;99267.53;4930818;29;20039;-71
2024/01/01 04:04:44;;;;;;;5.20;2.50;;;;;;;9.73;85.46;99272.16;4928835;29;20418;-71
2024/01/01 04:07:12;;;;;;;6.72;2.65;;;;;;;9.69;85.79;99276.75;4925765;29;20062;-71
2024/01/01 04:09:38;;;;;;;2.38;2.00;;;;;;;9.69;85.51;99264.09;4931076;29;20420;-71
2024/01/01 04:12:03;;;;;;;9.45;3.83;;;;;;;9.67;85.89;99262.91;4914389;29;20071;-71
2024/01/01 04:14:29;;;;;;;6.68;3.35;;;;;;;9.68;85.99;99259.06;4909645;29;20556;-72
2024/01/01 04:16:54;;;;;;;4.55;2.63;;;;;;;9.68;86.07;99264.44;4944419;29;20091;-71
2024/01/01 04:19:21;;;;;;;5.55;2.53;;;;;;;9.72;85.93;99260.63;4931583;29;20035;-71
2024/01/01 04:21:48;;;;;;;6.78;2.42;;;;;;;9.62;86.63;99263.31;4926734;29;20373;-71
2024/01/01 04:24:13;;;;;;;8.32;3.55;;;;;;;9.65;86.06;99266.00;4925333;29;20039;-71
2024/01/01 04:26:39;;;;;;;3.08;2.08;;;;;;;9.67;86.36;99260.22;4912177;29;20059;-71
2024/01/01 04:29:04;;;;;;;4.80;2.10;;;;;;;9.65;86.37;99254.47;4925939;29;20031;-71
2024/01/01 04:31:29;;;;;;;4.15;2.47;;;;;;;9.60;86.31;99262.94;4925375;29;20044;-73
2024/01/01 04:33:55;;;;;;;9.55;2.03;;;;;;;9.65;86.75;99263.31;4929336;29;20035;-72
2024/01/01 04:36:21;;;;;;;5.18;2.88;;;;;;;9.59;86.74;99254.09;4931382;29;20031;-71
2024/01/01 04:38:47;;;;;;;5.65;1.42;;;;;;;9.65;86.04;99260.63;4928731;29;20091;-71
2024/01/01 04:41:13;;;;;;;3.90;2.20;;;;;;;9.66;86.29;99258.69;4930707;29;20040;-71
2024/01/01 04:43:40;;;;;;;3.70;1.85;;;;;;;9.77;86.16;99264.84;4927504;29;20054;-71
2024/01/01 04:46:06;;;;;;;4.38;2.78;;;;;;;9.74;86.03;99263.69;4929094;29;20028;-71
2024/01/01 04:48:32;;;;;;;3.10;2.08;;;;;;;9.45;87.32;99264.81;4928436;29;20110;-71
2024/01/01 04:50:58;;;;;;;2.33;1.52;;;;;;;9.54;87.42;99259.06;4924979;29;20507;-71
2024/01/01 04:53:24;;;;;;;4.20;2.53;;;;;;;9.52;86.49;99266.75;4924071;29;20092;-71
2024/01/01 04:55:49;;;;;;;3.65;2.20;;;;;;;9.68;86.33;99259.06;4928322;29;20024;-71
2024/01/01 04:58:15;;;;;;;6.45;2.70;;;;;;;9.70;86.64;99262.16;4929154;29;20043;-72
2024/01/01 05:00:40;;;;;;;5.22;1.60;;;;;;;9.70;86.49;99268.28;4923742;29;20039;-71
2024/01/01 05:03:06;;;;;;;3.33;1.35;;;;;;;9.72;86.38;99262.53;4925739;29;20038;-71
2024/01/01 05:05:32;;;;;;;6.00;2.10;;;;;;;9.80;86.12;99256.00;4926228;29;20415;-71
2024/01/01 05:07:57;;;;;;;3.72;1.33;;;;;;;9.72;86.03;99259.84;4929542;29;20415;-71
2024/01/01 05:10:22;;;;;;;3.25;2.22;;;;;;;9.67;86.86;99258.31;4930205;29;20039;-71
2024/01/01 05:12:48;;;;;;;6.68;1.58;;;;;;;9.69;86.59;99253.34;4926150;29;20031;-71
2024/01/01 05:15:13;;;;;;;4.68;2.10;;;;;;;9.79;86.21;99252.53;4931275;29;20596;-71
2024/01/01 05:17:39;;;;;;;8.23;1.65;;;;;;;9.82;85.85;99249.09;4944068;29;20074;-71
2024/01/01 05:20:05;;;;;;;2.13;1.52;;;;;;;9.74;85.77;99260.22;4930086;29;20036;-72
2024/01/01 05:22:31;;;;;;;2.95;1.98;;;;;;;9.75;85.65;99245.66;4923436;29;20488;-71
2024/01/01 05:24:56;;;;;;;2.47;1.48;;;;;;;9.74;85.53;99246.78;4928027;29;20034;-71
2024/01/01 05:27:22;;;;;;;5.38;3.40;;;;;;;9.80;85.35;99237.19;4936507;28;20027;-71
2024/01/01 05:29:48;;;;;;;3.55;2.13;;;;;;;9.86;85.39;99232.97;4908048;29;20044;-72
2024/01/01 05:32:14;;;;;;;5.75;2.58;;;;;;;9.75;85.31;99241.06;4924371;29;20402;-72
2024/01/01 05:34:41;;;;;;;9.55;2.25;;;;;;;9.58;86.74;99239.09;4927756;29;20019;-72
2024/01/01 05:37:07;;;;;;;3.05;1.88;;;;;;;9.61;86.43;99232.19;4937024;28;20068;-71
2024/01/01 05:39:32;;;;;;;3.72;2.58;;;;;;;9.86;84.95;99227.59;4927211;29;20066;-71
2024/01/01 05:41:58;;;;;;;1.88;1.65;;;;;;;9.75;85.43;99237.59;4951847;28;20460;-71
2024/01/01 05:44:23;;;;;;;2.22;1.88;;;;;;;9.85;84.73;99229.50;4929758;29;20122;-71
2024/01/01 05:46:49;;;;;;;1.40;1.15;;;;;;;9.86;84.63;99235.66;4927399;29;20462;-71
2024/01/01 05:49:15;;;;;;;9.20;1.48;;;;;;;9.70;86.30;99224.50;4928524;29;20038;-71
2024/01/01 05:51:41;;;;;;;6.85;1.52;;;;;;;9.81;84.82;99228.75;4931767;29;20040;-71
2024/01/01 05:54:06;;;;;;;5.47;1.40;;;;;;;9.82;85.23;99232.19;4929632;29;20105;-72
2024/01/01 05:56:32;;;;;;;2.33;1.42;;;;;;;9.88;84.85;99236.03;4931569;29;20471;-71
2024/01/01 05:58:57;;;;;;;7.53;1.30;;;;;;;10.01;83.84;99239.88;4930735;29;20467;-71
2024/01/01 06:01:23;;;;;;;2.75;1.85;;;;;;;9.75;84.34;99233.00;4931481;29;20083;-71
2024/01/01 06:03:48;;;;;;;4.10;1.30;;;;;;;9.85;84.49;99252.97;4930901;29;20032;-71
2024/01/01 06:06:14;;;;;;;2.22;1.38;;;;;;;9.85;85.26;99250.28;4930897;29;20039;-71
2024/01/01 06:08:39;;;;;;;0.95;0.93;;;;;;;9.92;84.67;99261.00;4932375;29;20028;-71
2024/01/01 06:11:04;;;;;;;4.80;1.00;;;;;;;9.83;85.63;99256.00;4929796;29;20506;-71
2024/01/01 06:13:30;;;;;;;1.73;0.93;;;;;;;9.88;85.45;99254.88;4930421;29;20511;-71
2024/01/01 06:15:55;;;;;;;4.47;1.15;;;;;;;9.82;86.16;99248.34;4931481;29;20035;-71
2024/01/01 06:18:22;;;;;;;5.50;1.13;;;;;;;9.80;86.86;99250.63;4932164;29;20051;-71
2024/01/01 06:20:47;;;;;;;4.43;1.33;;;;;;;9.81;86.69;99255.63;4932720;29;20078;-71
2024/01/01 06:23:13;;;;;;;4.20;2.70;;;;;;;9.91;86.42;99256.81;4930093;29;20051;-71
2024/01/01 06:25:38;;;;;;;2.28;1.58;;;;;;;9.82;86.42;99251.78;4946956;29;20035;-71
2024/01/01 06:28:04;;;;;;;2.35;1.08;;;;;;;9.70;86.94;99256.78;4930090;29;20035;-71
2024/01/01 06:30:32;;;;;;;2.15;1.23;;;;;;;9.82;86.46;99251.78;4943403;29;20519;-71
2024/01/01 06:32:58;;;;;;;1.45;0.93;;;;;;;9.71;86.54;99261.00;4933765;29;20050;-71
2024/01/01 06:35:28;;;;;;;3.75;1.33;;;;;;;9.71;87.03;99255.63;4955061;28;20499;-72
2024/01/01 06:37:54;;;;;;;1.90;1.08;;;;;;;9.72;88.14;99268.69;4910813;29;20051;-71
2024/01/01 06:40:19;;;;;;;5.40;1.50;;;;;;;9.77;86.49;99264.84;4931514;29;20036;-71
2024/01/01 06:42:45;;;;;;;0.50;0.50;;;;;;;9.81;87.03;99252.19;4929606;29;21183;-71
2024/01/01 06:45:10;;;;;;;2.13;0.85;;;;;;;9.90;86.50;99263.31;4928976;29;20119;-71
2024/01/01 06:47:36;;;;;;;4.35;1.88;;;;;;;9.98;86.01;99267.56;4930572;29;20040;-71
2024/01/01 06:50:01;;;;;;;2.05;1.13;;;;;;;9.90;85.71;99264.09;4927147;29;20028;-71
2024/01/01 06:52:26;;;;;;;10.98;1.85;;;;;;;9.80;86.13;99269.47;4931179;29;20048;-72
2024/01/01 06:54:52;;;;;;;1.92;1.13;;;;;;;9.86;85.39;99270.63;4931002;29;20407;-71
2024/01/01 06:57:17;;;;;;;3.38;1.10;;;;;;;9.94;84.73;99281.00;4928278;29;20047;-71
2024/01/01 06:59:43;;;;;;;1.80;1.67;;;;;;;9.65;85.64;99278.66;4927646;29;20036;-71
2024/01/01 07:02:09;;;;;;;7.30;2.22;;;;;;;9.71;85.17;99277.91;4927395;29;20300;-71
2024/01/01 07:04:34;;;;;;;1.80;1.20;;;;;;;9.70;85.33;99280.97;4927795;29;20044;-71
2024/01/01 07:07:00;;;;;;;3.35;1.30;;;;;;;9.74;84.99;99285.19;4929784;29;20039;-71
2024/01/01 07:09:26;;;;;;;0.57;0.40;;;;;;;9.57;85.81;99287.84;4930946;29;20063;-71
2024/01/01 07:11:54;;;;;;;3.70;0.80;;;;;;;9.74;84.97;99295.19;4928793;29;20036;-72
2024/01/01 07:14:20;;;;;;;0.40;0.40;;;;;;;9.44;85.93;99284.78;4927276;29;20032;-70
2024/01/01 07:16:45;;;;;;;2.35;0.73;;;;;;;9.54;85.63;99288.63;4928983;29;20107;-71
2024/01/01 07:19:11;;;;;;;1.48;0.93;;;;;;;9.49;85.20;99286.31;4929898;29;20034;-72
2024/01/01 07:21:36;;;;;;;1.75;0.77;;;;;;;9.42;86.12;99288.97;4931397;29;20070;-71
2024/01/01 07:24:02;;;;;;;2.38;1.50;;;;;;;9.43;86.53;99291.28;4928292;29;20059;-71
2024/01/01 07:26:27;;;;;;;2.03;1.17;;;;;;;9.66;85.55;99288.25;4929429;29;20043;-71
2024/01/01 07:28:53;;;;;;;0.43;0.43;;;;;;;9.78;84.79;99287.88;4929978;29;20032;-71
2024/01/01 07:31:18;;;;;;;0.85;0.70;;;;;;;9.71;85.29;99291.34;4929312;29;20042;-72
2024/01/01 07:33:44;;;;;;;2.17;0.90;;;;;;;9.83;84.60;99287.53;4928227;29;20094;-71
2024/01/01 07:36:11;;;;;;;1.27;1.17;;;;;;;9.80;84.43;99291.75;4929622;29;20031;-71
2024/01/01 07:38:38;;;;;;;0.65;0.65;;;;;;;9.81;85.09;99292.50;4927669;29;20196;-71
2024/01/01 07:41:03;;;;;;;1.80;0.82;;;;;;;9.85;84.41;99290.59;4938074;28;20129;-71
2024/01/01 07:43:29;;;;;;;0.63;0.60;;;;;;;9.85;84.49;99295.97;4928469;29;20027;-72
2024/01/01 07:45:54;;;;;;;5.10;1.25;;;;;;;9.87;84.71;99283.66;4927511;28;20078;-72
2024/01/01 07:48:19;;;;;;;1.02;0.93;;;;;;;9.97;83.69;99287.50;4955045;28;20055;-71
2024/01/01 07:50:45;;;;;;;2.33;1.17;;;;;;;9.94;84.14;99288.28;4924232;29;20035;-72
2024/01/01 07:53:10;;;;;;;1.67;1.23;;;;;;;10.01;83.73;99290.97;4927692;29;20055;-71
2024/01/01 07:55:36;;;;;;;1.75;1.25;;;;;;;9.98;83.54;99295.22;4926977;29;20054;-71
2024/01/01 07:58:02;;;;;;;1.20;0.63;;;;;;;9.98;84.18;99286.38;4928482;29;20051;-71
2024/01/01 08:00:27;;;;;;;1.17;0.90;;;;;;;9.98;84.28;99299.81;4927762;29;20419;-72
2024/01/01 08:02:53;;;;;;;2.15;1.23;;;;;;;10.01;85.02;99290.97;4928295;29;20031;-72
2024/01/01 08:05:18;;;;;;;5.15;0.95;;;;;;;10.03;84.96;99286.75;4929402;29;20052;-71
2024/01/01 08:07:47;;;;;;;3.78;1.38;;;;;;;9.97;85.57;99292.88;4925642;29;20094;-71
2024/01/01 08:10:16;;;;;;;1.05;0.52;;;;;;;9.99;85.74;99291.38;4927218;29;20084;-72
2024/01/01 08:12:42;;;;;;;2.85;0.93;;;;;;;9.97;85.91;99287.50;4930088;29;20558;-72
2024/01/01 08:15:08;;;;;;;0.47;0.40;;;;;;;9.99;85.58;99296.75;4931306;29;20159;-71
2024/01/01 08:17:34;;;;;;;0.55;0.55;;;;;;;10.02;85.53;99303.28;4927038;29;20086;-73
2024/01/01 08:19:59;;;;;;;1.45;0.90;;;;;;;9.87;86.46;99301.75;4927497;29;20040;-71
2024/01/01 08:22:24;;;;;;;2.67;1.40;;;;;;;10.04;85.82;99303.66;4923343;29;20039;-72
2024/01/01 08:24:50;;;;;;;1.73;0.77;;;;;;;10.05;85.38;99294.44;4924875;29;20031;-71
2024/01/01 08:27:15;;;;;;;0.52;0.47;;;;;;;9.92;86.22;99294.06;4928349;29;20526;-71
2024/01/01 08:29:42;;;;;;;0.93;0.82;;;;;;;9.97;86.25;99304.41;4930344;29;20044;-71
2024/01/01 08:32:07;;;;;;;3.13;0.95;;;;;;;9.99;86.50;99293.28;4924743;29;20046;-72
2024/01/01 08:34:33;;;;;;;1.90;0.70;;;;;;;10.03;86.87;99296.72;4923973;29;20024;-72
2024/01/01 08:37:02;;;;;;;2.75;0.88;;;;;;;9.96;87.31;99296.75;4927572;29;20035;-71
2024/01/01 08:39:35;;;;;;;1.98;0.85;;;;;;;10.04;87.07;99309.03;5096974;27;21224;-72
2024/01/01 08:42:00;;;;;;;1.13;0.63;;;;;;;10.17;86.67;99296.78;5073189;28;20115;-71
2024/01/01 08:44:26;;;;;;;0.85;0.85;;;;;;;10.00;87.36;99303.66;5076909;28;20105;-72
2024/01/01 08:46:51;;;;;;;0.75;0.63;;;;;;;10.03;87.97;99304.81;5056770;28;20033;-71
2024/01/01 08:49:16;;;;;;;1.35;1.08;;;;;;;10.12;87.23;99304.47;5053006;28;20044;-71
2024/01/01 08:51:42;;;;;;;0.93;0.68;;;;;;;10.14;87.51;99311.00;5064802;28;20040;-71
2024/01/01 08:54:07;;;;;;;0.47;0.47;;;;;;;10.08;87.81;99311.72;5045988;28;20024;-71
2024/01/01 08:56:33;;;;;;;0.73;0.73;;;;;;;10.07;87.72;99310.19;5053768;28;20091;-71
2024/01/01 08:58:59;;;;;;;1.90;0.80;;;;;;;10.16;88.06;99314.06;5072334;28;20509;-72
2024/01/01 09:01:24;;;;;;;1.17;0.63;;;;;;;10.08;88.48;99315.19;5071291;28;20045;-72
2024/01/01 09:03:50;;;;;;;0.70;0.70;;;;;;;9.99;88.97;99312.88;5055839;28;20033;-72
2024/01/01 09:06:15;;;;;;;2.17;0.60;;;;;;;10.16;88.47;99311.38;5049247;28;20035;-71
2024/01/01 09:08:43;;;;;;;0.73;0.65;;;;;;;10.24;88.28;99325.59;5066961;28;20421;-71
2024/01/01 09:11:08;;;;;;;1.80;0.90;;;;;;;10.08;88.73;99325.19;5067889;28;20046;-72
2024/01/01 09:13:34;;;;;;;1.38;0.95;;;;;;;10.19;88.60;99320.59;5065407;28;20192;-71
2024/01/01 09:16:00;;;;;;;1.25;0.75;;;;;;;10.13;89.99;99322.13;5049160;28;20397;-71
2024/01/01 09:18:25;;;;;;;0.80;0.80;;;;;;;10.22;90.48;99336.72;5049067;28;20024;-71
2024/01/01 09:20:50;;;;;;;2.28;1.45;;;;;;;10.17;91.41;99337.13;5065498;28;20048;-71
2024/01/01 09:23:16;;;;;;;1.02;0.77;;;;;;;10.26;90.92;99342.13;5047379;28;20090;-71
2024/01/01 09:25:41;;;;;;;0.30;0.30;;;;;;;10.32;90.56;99335.97;5062801;28;20466;-73
2024/01/01 09:28:07;;;;;;;1.13;0.50;;;;;;;10.20;91.07;99344.41;5033881;28;20123;-72
2024/01/01 09:30:32;;;;;;;1.20;1.08;;;;;;;10.10;92.51;99344.41;5068541;28;20123;-72
2024/01/01 09:32:58;;;;;;;1.27;0.60;;;;;;;10.08;92.57;99341.31;5043276;28;20082;-72
2024/01/01 09:35:24;;;;;;;1.45;0.95;;;;;;;10.11;92.20;99340.56;5074163;28;20064;-73
2024/01/01 09:37:53;;;;;;;1.58;0.88;;;;;;;10.15;92.79;99338.66;5061057;28;20021;-72
2024/01/01 09:40:20;;;;;;;5.03;1.25;;;;;;;10.16;92.45;99338.28;5082574;28;20036;-72
2024/01/01 09:42:50;;;;;;;1.67;1.05;;;;;;;9.98;93.63;99340.16;5050105;28;20032;-72
2024/01/01 09:45:16;;;;;;;4.50;1.10;;;;;;;9.73;95.16;99342.81;5045721;28;20120;-73
2024/01/01 09:47:42;;;;;;;2.10;1.25;;;;;;;9.94;94.84;99339.38;5067089;28;20560;-72
2024/01/01 09:50:08;;;;;;;3.78;1.58;;;;;;;9.95;95.16;99338.22;5056420;28;20052;-71
2024/01/01 09:52:34;;;;;;;1.38;0.88;;;;;;;9.91;95.05;99343.59;5032298;28;20109;-72
2024/01/01 09:54:59;;;;;;;1.42;0.95;;;;;;;9.98;94.89;99342.84;5041475;28;20487;-72
2024/01/01 09:57:26;;;;;;;1.48;1.05;;;;;;;10.03;95.08;99339.75;5060149;28;20319;-70
2024/01/01 09:59:52;;;;;;;0.52;0.50;;;;;;;10.06;95.02;99330.16;5042113;28;20040;-70
2024/01/01 10:02:22;;;;;;;1.10;0.52;;;;;;;10.02;94.83;99338.25;5058622;28;20449;-70
2024/01/01 10:04:48;;;;;;;0.93;0.83;;;;;;;9.78;96.00;99330.91;5058930;28;20498;-71
2024/01/01 10:07:25;;;;;;;0.85;0.65;;;;;;;9.90;95.80;99336.69;5061222;28;20284;-70
2024/01/01 10:09:50;;;;;;;1.30;0.90;;;;;;;9.94;95.58;99342.06;5061124;28;20037;-70
2024/01/01 10:12:21;;;;;;;2.13;0.75;;;;;;;9.88;96.01;99341.69;5042349;28;20615;-70
2024/01/01 10:14:47;;;;;;;1.23;0.77;;;;;;;9.86;95.53;99332.44;5062634;28;20045;-70
2024/01/01 10:17:15;;;;;;;5.18;1.05;;;;;;;9.84;96.90;99334.75;5059954;28;20044;-70
2024/01/01 10:19:52;;;;;;;0.50;0.50;;;;;;;9.97;95.94;99336.69;5031218;28;20033;-70
2024/01/01 10:22:23;;;;;;;1.70;1.08;;;;;;;9.91;96.47;99335.53;5055755;28;20128;-69
2024/01/01 10:24:52;;;;;;;1.48;1.35;;;;;;;9.94;96.59;99340.16;5058894;28;20462;-71
2024/01/01 10:27:19;;;;;;;2.25;0.93;;;;;;;9.95;96.26;99343.59;5058678;28;20044;-70
2024/01/01 10:29:47;;;;;;;1.83;0.55;;;;;;;9.89;96.44;99348.59;5038437;28;20107;-70
2024/01/01 10:32:17;;;;;;;1.25;0.60;;;;;;;9.96;96.48;99345.16;5045697;28;20136;-70
2024/01/01 10:34:46;;;;;;;3.53;0.90;;;;;;;10.06;96.28;99349.78;5032923;28;20025;-70
2024/01/01 10:37:14;;;;;;;1.35;0.77;;;;;;;9.95;96.35;99352.44;5049535;28;20044;-70
2024/01/01 10:39:41;;;;;;;0.90;0.80;;;;;;;9.93;96.76;99353.97;5038764;28;20178;-70
2024/01/01 10:42:09;;;;;;;0.82;0.73;;;;;;;9.87;96.66;99348.19;5040074;28;20094;-70
2024/01/01 10:44:34;;;;;;;1.92;0.40;;;;;;;9.91;97.54;99342.84;5039134;28;20406;-69
2024/01/01 10:47:06;;;;;;;0.80;0.47;;;;;;;10.03;96.44;99355.91;5056677;28;20058;-70
2024/01/01 10:49:31;;;;;;;;;;;;;;;9.99;96.50;99352.44;5050076;28;20394;-70
2024/01/01 10:52:31;;;;;;;0.55;0.55;;;;;;;9.86;96.83;99346.66;5035110;28;19920;-70
2024/01/01 10:55:11;;;;;;;0.80;0.68;;;;;;;9.82;97.14;99345.13;5057784;28;20040;-71
2024/01/01 10:57:58;;;;;;;0.45;0.45;;;;;;;9.88;97.14;99354.34;5042648;28;20040;-71
2024/01/01 11:00:38;;;;;;;0.88;0.85;;;;;;;10.02;97.17;99354.38;5055952;28;20044;-70
2024/01/01 11:03:05;;;;;;;1.35;0.80;;;;;;;10.06;96.65;99352.47;5057466;28;20032;-70
2024/01/01 11:05:35;;;;;;;1.83;1.08;;;;;;;10.06;95.99;99357.06;5050803;28;20032;-70
2024/01/01 11:08:03;;;;;;;0.60;0.55;;;;;;;10.04;95.99;99355.50;5052323;28;20038;-70
2024/01/01 11:10:49;;;;;;;1.65;0.88;;;;;;;10.07;96.23;99359.38;5046404;28;20021;-71
2024/01/01 11:13:38;;;;;;;3.40;0.90;;;;;;;10.18;95.45;99362.84;5044283;28;20035;-71
2024/01/01 11:16:04;;;;;;;0.73;0.73;;;;;;;10.11;96.00;99359.41;5046670;28;20056;-70
2024/01/01 11:18:34;;;;;;;0.73;0.63;;;;;;;10.00;95.92;99362.06;5059063;28;20020;-70
2024/01/01 11:21:07;;;;;;;1.65;0.70;;;;;;;10.12;94.98;99363.63;5032416;28;20029;-71
2024/01/01 11:23:45;;;;;;;2.28;0.90;;;;;;;10.09;94.77;99369.75;5049826;28;20043;-71
2024/01/01 11:26:24;;;;;;;0.45;0.45;;;;;;;10.15;94.44;99366.31;5026287;28;20037;-70
2024/01/01 11:28:51;;;;;;;1.17;0.65;;;;;;;10.26;94.30;99367.09;5049004;28;20068;-71
2024/01/01 11:31:18;;;;;;;0.32;0.32;;;;;;;10.28;94.66;99370.16;5034590;28;20387;-71
2024/01/01 11:33:44;;;;;;;0.75;0.73;;;;;;;10.22;94.06;99368.25;5035366;28;20037;-70
2024/01/01 11:36:10;;;;;;;0.40;0.40;;;;;;;10.22;94.73;99366.31;5041933;28;20127;-71